Time;durP1;ratioP1;P1;durP2;ratioP2;P2;SDS_P1;SDS_P2;PMS_P1;PMS_P2;Temp;Humidity;BMP_temperature;BMP_pressure;BME280_temperature;BME280_humidity;BME280_pressure;Samples;Min_cycle;Max_cycle;Signal;HPM_P1;HPM_P2
2023/10/09 00:01:31;;;;;;;8.47;7.73;;;;;;;11.60;89.03;101734.72;5036814;28;20573;-70
2023/10/09 00:04:01;;;;;;;9.93;8.90;;;;;;;11.62;88.89;101735.47;5036527;28;20687;-70
2023/10/09 00:06:36;;;;;;;12.97;8.43;;;;;;;11.60;88.93;101725.84;5036844;28;20184;-70
2023/10/09 00:11:56;;;;;;;10.30;8.97;;;;;;;11.59;89.04;101725.00;5036685;28;20282;-70
2023/10/09 00:14:38;;;;;;;8.63;8.10;;;;;;;11.63;89.36;101726.41;5036599;28;20664;-70
2023/10/09 00:17:16;;;;;;;9.77;8.90;;;;;;;11.65;89.38;101720.94;5036620;28;20180;-70
2023/10/09 00:19:51;;;;;;;12.70;8.93;;;;;;;11.63;89.86;101714.84;5036336;28;20180;-70
2023/10/09 00:22:25;;;;;;;11.10;9.87;;;;;;;11.65;89.46;101723.63;5036190;28;20261;-70
2023/10/09 00:25:11;;;;;;;12.73;9.87;;;;;;;11.66;89.82;101726.19;5036208;28;20193;-70
2023/10/09 00:27:44;;;;;;;10.07;9.27;;;;;;;11.66;89.95;101717.28;5036763;28;20195;-70
2023/10/09 00:30:17;;;;;;;12.93;9.33;;;;;;;11.64;90.01;101705.84;5036464;28;20617;-70
2023/10/09 00:32:52;;;;;;;11.30;10.27;;;;;;;11.67;90.13;101702.91;5035024;28;20230;-70
2023/10/09 00:35:37;;;;;;;10.27;9.37;;;;;;;11.70;90.23;101695.47;5034775;28;20187;-70
2023/10/09 00:38:24;;;;;;;11.97;8.93;;;;;;;11.75;90.27;101685.19;5035664;28;20176;-70
2023/10/09 00:41:09;;;;;;;16.20;9.50;;;;;;;11.83;90.45;101679.19;5036467;28;20229;-70
2023/10/09 00:43:37;;;;;;;23.33;13.10;;;;;;;11.95;90.97;101687.94;5036107;28;20629;-70
2023/10/09 00:46:23;;;;;;;26.80;14.80;;;;;;;12.06;91.88;101694.03;5036134;28;20241;-70
2023/10/09 00:48:55;;;;;;;25.07;14.97;;;;;;;12.25;92.00;101694.09;5036153;28;20176;-70
2023/10/09 00:51:24;;;;;;;33.63;16.80;;;;;;;12.53;92.24;101700.44;5034573;28;20212;-70
2023/10/09 00:53:58;;;;;;;29.03;16.30;;;;;;;12.64;92.44;101684.25;5036000;28;20184;-70
2023/10/09 00:59:08;;;;;;;22.53;15.37;;;;;;;12.75;92.78;101680.53;5034403;28;20192;-70
2023/10/09 01:01:40;;;;;;;23.70;14.57;;;;;;;12.80;92.77;101670.25;5035780;28;20757;-70
2023/10/09 01:04:10;;;;;;;27.50;14.70;;;;;;;12.86;92.93;101666.97;5035712;28;20208;-70
2023/10/09 01:06:44;;;;;;;29.23;14.47;;;;;;;12.91;93.21;101656.66;5036305;28;20543;-70
2023/10/09 01:09:16;;;;;;;29.17;15.93;;;;;;;12.97;93.06;101661.47;5035747;28;20194;-70
2023/10/09 01:14:25;;;;;;;33.97;16.83;;;;;;;13.08;93.69;101669.34;5035403;28;20727;-70
2023/10/09 01:16:55;;;;;;;30.33;15.50;;;;;;;13.15;93.50;101662.41;5035271;28;20188;-70
2023/10/09 01:19:25;;;;;;;30.03;16.70;;;;;;;13.28;93.39;101675.56;5035792;28;20573;-70
2023/10/09 01:21:51;;;;;;;36.57;16.37;;;;;;;13.40;93.47;101670.84;5035113;28;20250;-70
2023/10/09 01:24:19;;;;;;;40.30;18.37;;;;;;;13.48;93.90;101670.94;5035032;28;20258;-70
2023/10/09 01:26:47;;;;;;;33.63;17.53;;;;;;;13.52;93.76;101659.75;5035329;28;20220;-70
2023/10/09 01:29:23;;;;;;;33.10;17.87;;;;;;;13.59;93.73;101657.31;5035030;28;20192;-70
2023/10/09 01:31:54;;;;;;;29.23;17.73;;;;;;;13.72;93.69;101665.88;5035217;28;20257;-70
2023/10/09 01:34:41;;;;;;;31.20;18.17;;;;;;;13.74;93.57;101671.97;5035256;28;20207;-70
2023/10/09 01:37:23;;;;;;;32.83;15.73;;;;;;;13.91;93.82;101675.69;5035150;28;20544;-70
2023/10/09 01:39:51;;;;;;;39.10;16.40;;;;;;;13.98;93.54;101671.41;5033498;28;20267;-70
2023/10/09 01:44:52;;;;;;;41.57;18.10;;;;;;;14.26;92.64;101664.97;5034736;28;20606;-70
2023/10/09 01:47:21;;;;;;;27.80;15.37;;;;;;;14.29;92.95;101663.84;5033716;28;20537;-70
2023/10/09 01:49:52;;;;;;;33.47;15.20;;;;;;;14.37;92.45;101664.81;5035153;28;20196;-70
2023/10/09 01:52:20;;;;;;;36.67;16.93;;;;;;;14.38;92.32;101673.72;5034554;28;20583;-70
2023/10/09 01:54:51;;;;;;;24.50;16.17;;;;;;;14.40;92.30;101672.56;5034517;28;20184;-70
2023/10/09 01:57:22;;;;;;;33.33;17.27;;;;;;;14.35;92.41;101665.91;5034817;28;20234;-70
2023/10/09 01:59:50;;;;;;;37.00;15.90;;;;;;;14.36;92.67;101671.19;5033193;28;20195;-70
2023/10/09 02:02:35;;;;;;;38.73;16.83;;;;;;;14.52;92.15;101673.16;5034844;28;20211;-70
2023/10/09 02:07:51;;;;;;;28.07;16.20;;;;;;;14.68;90.95;101667.09;5034577;28;20610;-70
2023/10/09 02:12:59;;;;;;;30.57;15.80;;;;;;;14.70;91.36;101662.41;5032928;28;20582;-70
2023/10/09 02:28:52;;;;;;;35.23;15.37;;;;;;;14.82;89.84;101656.63;5034722;28;20218;-70
2023/10/09 02:31:22;;;;;;;19.30;14.23;;;;;;;14.96;89.10;101644.44;5032566;28;20211;-70
2023/10/09 02:33:53;;;;;;;19.23;14.80;;;;;;;15.00;88.66;101649.34;5033840;28;20192;-70
2023/10/09 02:36:19;;;;;;;24.57;14.03;;;;;;;14.90;88.90;101653.13;5034377;28;20259;-71
2023/10/09 02:38:48;;;;;;;26.63;15.27;;;;;;;14.89;89.46;101656.84;5032701;28;20198;-71
2023/10/09 02:43:46;;;;;;;18.57;13.87;;;;;;;15.01;89.11;101645.66;5032405;28;20237;-70
2023/10/09 02:48:50;;;;;;;20.17;13.43;;;;;;;15.07;88.48;101636.09;5033601;28;20260;-70
2023/10/09 02:53:55;;;;;;;17.33;12.87;;;;;;;15.15;88.44;101633.44;5033814;28;20179;-71
2023/10/09 02:56:36;;;;;;;20.77;13.37;;;;;;;15.22;88.09;101631.81;5034033;28;20176;-71
2023/10/09 02:59:07;;;;;;;21.80;12.80;;;;;;;15.18;88.11;101626.91;5032082;28;20241;-71
2023/10/09 03:01:34;;;;;;;22.13;12.30;;;;;;;15.22;88.04;101629.13;5033366;28;20691;-71
2023/10/09 03:04:02;;;;;;;26.60;13.97;;;;;;;15.16;88.14;101621.66;5032040;28;20191;-71
2023/10/09 03:06:32;;;;;;;21.47;13.07;;;;;;;15.14;87.92;101617.47;5031984;28;20191;-71
2023/10/09 03:08:58;;;;;;;20.10;12.83;;;;;;;15.22;88.13;101631.81;5033801;28;20187;-71
2023/10/09 03:11:26;;;;;;;19.37;12.13;;;;;;;15.18;88.10;101626.91;5033363;28;20227;-71
2023/10/09 03:13:54;;;;;;;18.67;12.23;;;;;;;15.19;88.11;101624.03;5031863;28;20203;-71
2023/10/09 03:16:21;;;;;;;29.03;13.27;;;;;;;15.14;88.48;101622.84;5033705;28;20191;-71
2023/10/09 03:18:52;;;;;;;15.20;12.63;;;;;;;15.27;88.05;101621.41;5033191;28;20278;-71
2023/10/09 03:21:19;;;;;;;18.70;13.47;;;;;;;15.16;88.11;101616.28;5033285;28;20204;-71
2023/10/09 03:23:49;;;;;;;15.20;13.57;;;;;;;15.23;88.15;101620.03;5033477;28;20211;-71
2023/10/09 03:26:20;;;;;;;20.47;12.80;;;;;;;15.31;87.64;101606.63;5033093;28;20226;-71
2023/10/09 03:28:49;;;;;;;18.63;12.47;;;;;;;15.22;87.88;101607.56;5033118;28;20188;-71
2023/10/09 03:31:15;;;;;;;17.17;13.37;;;;;;;15.24;88.32;101600.16;5032999;28;20218;-70
2023/10/09 03:33:42;;;;;;;16.97;13.10;;;;;;;15.28;87.83;101603.38;5033587;28;20206;-70
2023/10/09 03:36:11;;;;;;;17.70;13.07;;;;;;;15.29;88.22;101600.53;5033520;28;20196;-70
2023/10/09 03:38:38;;;;;;;19.43;13.33;;;;;;;15.36;87.42;101600.75;5032985;28;20187;-70
2023/10/09 03:41:06;;;;;;;21.47;12.30;;;;;;;15.24;87.67;101594.78;5032917;28;20211;-70
2023/10/09 03:43:37;;;;;;;14.97;11.57;;;;;;;15.21;87.98;101575.41;5032975;28;20188;-70
2023/10/09 03:46:20;;;;;;;18.10;12.27;;;;;;;15.29;87.92;101588.91;5033178;28;20586;-70
2023/10/09 03:48:56;;;;;;;22.93;12.53;;;;;;;15.42;87.21;101583.91;5032953;28;20590;-70
2023/10/09 03:51:23;;;;;;;16.70;12.30;;;;;;;15.44;86.95;101584.63;5033135;28;20207;-70
2023/10/09 03:53:52;;;;;;;18.80;13.07;;;;;;;15.43;86.94;101581.06;5033152;28;20648;-70
2023/10/09 03:56:21;;;;;;;16.37;13.30;;;;;;;15.43;86.94;101582.91;5033082;28;20199;-70
2023/10/09 03:58:49;;;;;;;23.20;12.50;;;;;;;15.52;86.50;101576.59;5033081;28;20683;-70
2023/10/09 04:03:59;;;;;;;18.20;12.50;;;;;;;15.44;86.70;101571.97;5033082;28;20199;-70
2023/10/09 04:06:32;;;;;;;13.47;11.97;;;;;;;15.37;86.80;101573.63;5033294;28;20231;-70
2023/10/09 04:09:48;;;;;;;34.33;13.10;;;;;;;15.37;86.65;101576.31;5033275;28;20639;-70
2023/10/09 04:12:19;;;;;;;20.93;12.23;;;;;;;15.33;86.88;101571.41;5030530;28;20583;-71
2023/10/09 04:15:00;;;;;;;13.27;11.70;;;;;;;15.38;86.41;101569.94;5036327;28;20220;-71
2023/10/09 04:17:33;;;;;;;13.37;11.97;;;;;;;15.36;86.67;101560.31;5036968;28;20595;-71
2023/10/09 04:22:59;;;;;;;17.10;12.20;;;;;;;15.41;86.24;101557.97;5036263;28;20222;-70
2023/10/09 04:25:28;;;;;;;15.97;12.03;;;;;;;15.44;85.97;101574.69;5036739;28;20200;-70
2023/10/09 04:30:46;;;;;;;14.20;11.13;;;;;;;15.64;84.88;101569.03;5036376;28;20172;-70
2023/10/09 04:41:52;;;;;;;21.60;11.60;;;;;;;15.54;85.21;101558.38;5036071;28;20708;-70
2023/10/09 04:44:19;;;;;;;23.20;11.57;;;;;;;15.56;85.23;101561.78;5036183;28;20184;-70
2023/10/09 04:53:22;;;;;;;14.90;11.47;;;;;;;15.66;84.21;101562.47;5036021;28;20211;-70
2023/10/09 04:57:45;;;;;;;29.40;12.67;;;;;;;15.68;84.25;101576.63;5036196;28;20188;-70
2023/10/09 05:02:57;;;;;;;13.03;11.40;;;;;;;15.66;84.30;101561.66;5035765;28;20215;-70
2023/10/09 05:05:49;;;;;;;20.97;12.07;;;;;;;15.63;83.97;101562.81;5035959;28;20196;-71
2023/10/09 05:18:59;;;;;;;34.07;12.27;;;;;;;15.69;83.88;101588.28;5035552;28;20190;-70
2023/10/09 05:29:19;;;;;;;17.67;11.07;;;;;;;15.79;83.39;101611.38;5035641;28;20175;-71
2023/10/09 05:37:22;;;;;;;29.13;11.87;;;;;;;15.78;83.51;101641.22;5035466;28;20212;-71
2023/10/09 05:50:34;;;;;;;19.47;11.63;;;;;;;15.77;84.19;101607.16;5034709;28;20180;-71
2023/10/09 06:04:15;;;;;;;16.00;11.43;;;;;;;15.73;84.18;101647.09;5032662;28;20172;-70
2023/10/09 06:06:44;;;;;;;16.73;11.43;;;;;;;15.74;84.21;101642.53;5034120;28;20244;-70
2023/10/09 06:11:49;;;;;;;15.03;11.07;;;;;;;15.69;84.61;101653.81;5034523;28;20214;-70
2023/10/09 06:19:28;;;;;;;19.47;12.40;;;;;;;15.66;85.04;101654.13;5034070;28;20188;-71
2023/10/09 06:25:17;;;;;;;14.43;12.93;;;;;;;15.72;84.95;101652.63;5034002;28;20181;-71
2023/10/09 06:35:33;;;;;;;15.43;13.03;;;;;;;15.74;84.92;101650.63;5033157;28;20177;-71
2023/10/09 06:46:22;;;;;;;34.13;13.13;;;;;;;15.81;84.66;101675.94;5033816;28;20258;-72
2023/10/09 06:48:45;;;;;;;19.43;12.67;;;;;;;15.78;84.70;101663.63;5033586;28;20563;-72
2023/10/09 06:59:41;;;;;;;22.70;13.73;;;;;;;15.86;84.60;101652.88;5033454;28;20263;-71
2023/10/09 07:07:07;;;;;;;20.60;13.03;;;;;;;15.93;84.75;101664.69;5033334;28;20243;-71
2023/10/09 07:09:42;;;;;;;28.20;12.63;;;;;;;15.93;84.45;101670.06;5033843;28;20180;-71
2023/10/09 07:12:14;;;;;;;20.40;12.87;;;;;;;15.98;84.36;101677.69;5033508;28;20213;-71
2023/10/09 07:30:35;;;;;;;18.97;12.87;;;;;;;16.06;83.76;101688.50;5033381;28;20180;-71
2023/10/09 07:33:16;;;;;;;20.50;12.30;;;;;;;16.01;84.54;101663.84;5032937;28;20294;-71
2023/10/09 07:38:18;;;;;;;13.00;11.33;;;;;;;15.97;84.82;101625.59;5033047;28;20238;-71
2023/10/09 07:49:21;;;;;;;15.27;12.93;;;;;;;16.27;83.48;101642.16;5037429;28;20184;-71
2023/10/09 07:51:47;;;;;;;16.60;13.37;;;;;;;16.21;84.16;101640.97;5036815;28;20207;-71
2023/10/09 07:54:14;;;;;;;21.40;12.73;;;;;;;16.22;83.80;101671.50;5036830;28;20332;-71
2023/10/09 07:56:46;;;;;;;29.37;13.73;;;;;;;16.28;83.77;101666.31;5037345;28;20168;-71
2023/10/09 07:59:18;;;;;;;16.40;13.23;;;;;;;16.21;83.87;101667.94;5036816;28;20180;-71
2023/10/09 08:02:02;;;;;;;21.13;13.20;;;;;;;16.20;83.83;101674.38;5036582;28;20212;-70
2023/10/09 08:04:39;;;;;;;16.17;12.47;;;;;;;16.24;83.63;101694.63;5037233;28;20559;-71
2023/10/09 08:07:19;;;;;;;18.30;12.53;;;;;;;16.29;83.78;101684.19;5036854;28;20218;-71
2023/10/09 08:15:28;;;;;;;20.40;13.33;;;;;;;16.36;83.78;101693.31;5036455;28;20207;-71
2023/10/09 08:17:59;;;;;;;26.83;14.17;;;;;;;16.35;83.73;101710.50;5036647;28;20597;-71
2023/10/09 08:20:27;;;;;;;24.57;13.80;;;;;;;16.31;83.72;101719.94;5036644;28;20259;-71
2023/10/09 08:22:55;;;;;;;23.10;13.83;;;;;;;16.35;83.48;101726.69;5036540;28;20219;-71
2023/10/09 08:25:26;;;;;;;22.60;13.40;;;;;;;16.39;83.24;101711.00;5036128;28;20655;-71
2023/10/09 08:28:36;;;;;;;20.37;13.43;;;;;;;16.34;83.25;101689.06;5036474;28;20176;-71
2023/10/09 08:30:50;;;;;;;26.23;14.30;;;;;;;16.39;83.39;101687.56;5036082;28;20200;-71
2023/10/09 08:36:04;;;;;;;27.20;14.33;;;;;;;16.33;84.22;101722.47;5036139;28;20165;-71
2023/10/09 08:38:33;;;;;;;22.90;14.53;;;;;;;16.37;84.33;101710.34;5036324;28;20187;-71
2023/10/09 08:41:15;;;;;;;23.60;14.33;;;;;;;16.36;84.10;101714.91;5036178;28;20208;-70
2023/10/09 08:43:53;;;;;;;23.63;14.80;;;;;;;16.40;84.35;101707.31;5036509;28;20696;-70
2023/10/09 08:46:26;;;;;;;27.53;14.30;;;;;;;16.37;84.68;101681.50;5035763;28;20687;-70
2023/10/09 08:48:55;;;;;;;16.20;13.53;;;;;;;16.32;84.73;101651.47;5036315;28;20203;-71
2023/10/09 08:51:24;;;;;;;23.90;14.93;;;;;;;16.30;84.87;101621.09;5035709;28;20208;-70
2023/10/09 08:53:52;;;;;;;24.07;14.73;;;;;;;16.28;85.28;101612.34;5035923;28;20237;-71
2023/10/09 08:56:22;;;;;;;28.00;15.70;;;;;;;16.28;85.32;101606.09;5035705;28;20180;-71
2023/10/09 08:59:02;;;;;;;25.90;13.73;;;;;;;16.33;85.18;101604.59;5035277;28;20271;-71
2023/10/09 09:01:31;;;;;;;16.67;13.20;;;;;;;16.38;84.91;101610.28;5036066;28;20211;-71
2023/10/09 09:03:59;;;;;;;20.57;13.47;;;;;;;16.41;85.46;101623.47;5035890;28;20176;-71
2023/10/09 09:06:26;;;;;;;19.37;13.07;;;;;;;16.45;85.35;101621.28;5035788;28;20207;-71
2023/10/09 09:08:59;;;;;;;15.33;12.73;;;;;;;16.51;85.45;101607.09;5035479;28;20242;-71
2023/10/09 09:11:30;;;;;;;34.03;13.37;;;;;;;16.62;85.36;101616.75;5035681;28;20224;-70
2023/10/09 09:13:58;;;;;;;31.83;14.57;;;;;;;16.73;85.10;101611.00;5035583;28;20207;-70
2023/10/09 09:16:31;;;;;;;17.07;12.90;;;;;;;16.78;85.11;101611.34;5035889;28;20204;-70
2023/10/09 09:21:48;;;;;;;24.47;14.33;;;;;;;16.94;83.81;101611.31;5035209;28;20203;-71
2023/10/09 09:26:58;;;;;;;26.47;14.37;;;;;;;17.07;83.31;101625.13;5035391;28;20207;-71
2023/10/09 09:29:37;;;;;;;21.07;13.80;;;;;;;17.05;82.86;101602.88;5035405;28;20182;-71
2023/10/09 09:32:17;;;;;;;16.77;13.77;;;;;;;17.10;83.27;101611.28;5035259;28;20218;-71
2023/10/09 09:34:57;;;;;;;17.80;13.27;;;;;;;17.17;83.31;101592.53;5035333;28;20671;-71
2023/10/09 09:40:15;;;;;;;26.47;14.63;;;;;;;17.30;81.90;101599.09;5035212;28;20176;-71
2023/10/09 09:42:48;;;;;;;17.10;13.63;;;;;;;17.37;81.41;101623.53;5035067;28;20742;-71
2023/10/09 09:45:16;;;;;;;24.43;13.73;;;;;;;17.41;81.76;101640.25;5035349;28;20620;-71
2023/10/09 09:47:51;;;;;;;20.27;14.03;;;;;;;17.38;81.83;101651.41;5035163;28;20208;-71
2023/10/09 09:50:29;;;;;;;19.80;14.47;;;;;;;17.35;82.12;101660.72;5035015;28;20179;-71
2023/10/09 09:52:56;;;;;;;23.63;14.27;;;;;;;17.49;81.90;101667.25;5035657;28;20733;-71
2023/10/09 09:55:33;;;;;;;30.60;15.00;;;;;;;17.51;80.66;101665.25;5034865;28;20263;-71
2023/10/09 09:58:02;;;;;;;20.23;15.97;;;;;;;17.47;80.98;101669.31;5034853;28;20164;-72
2023/10/09 10:03:19;;;;;;;18.90;15.33;;;;;;;17.47;80.77;101663.91;5034777;28;20184;-71
2023/10/09 10:05:48;;;;;;;23.60;14.80;;;;;;;17.51;80.93;101665.25;5034918;28;20190;-71
2023/10/09 10:08:20;;;;;;;22.67;15.07;;;;;;;17.56;81.12;101673.69;5034600;28;20552;-71
2023/10/09 10:10:49;;;;;;;24.83;14.87;;;;;;;17.65;81.23;101675.38;5034080;28;20532;-71
2023/10/09 10:13:22;;;;;;;23.87;13.13;;;;;;;17.73;82.09;101672.63;5034189;28;20258;-71
2023/10/09 10:15:56;;;;;;;21.67;14.10;;;;;;;17.74;80.31;101677.84;5034265;28;20261;-71
2023/10/09 10:18:24;;;;;;;23.03;13.93;;;;;;;17.79;80.66;101672.78;5034363;28;20187;-71
2023/10/09 10:21:33;;;;;;;21.13;14.03;;;;;;;17.85;79.11;101663.13;5034072;28;20726;-71
2023/10/09 10:24:06;;;;;;;25.90;14.80;;;;;;;17.83;78.90;101667.84;5034630;28;20176;-72
2023/10/09 10:26:35;;;;;;;31.33;13.93;;;;;;;17.86;79.17;101662.09;5034513;28;20211;-72
2023/10/09 10:29:23;;;;;;;14.77;13.13;;;;;;;17.88;79.40;101665.47;5033952;28;20217;-72
2023/10/09 10:32:01;;;;;;;18.60;13.27;;;;;;;17.86;78.78;101672.94;5034373;28;20656;-72
2023/10/09 10:34:56;;;;;;;19.43;13.83;;;;;;;17.87;78.41;101668.31;5033845;28;20183;-72
2023/10/09 10:38:20;;;;;;;27.80;13.97;;;;;;;17.90;78.81;101668.84;5034377;28;20184;-71
2023/10/09 10:40:40;;;;;;;16.40;13.33;;;;;;;17.98;77.73;101662.53;5030672;28;20733;-72
2023/10/09 10:43:31;;;;;;;22.43;13.10;;;;;;;18.03;79.31;101660.16;5034295;28;20186;-71
2023/10/09 10:46:13;;;;;;;23.60;13.37;;;;;;;18.07;77.57;101661.50;5033920;28;20538;-71
2023/10/09 10:48:46;;;;;;;27.47;13.17;;;;;;;18.19;78.28;101658.19;5033648;28;20176;-72
2023/10/09 10:51:21;;;;;;;18.57;13.17;;;;;;;18.18;76.70;101655.66;5034026;28;20204;-72
2023/10/09 10:53:57;;;;;;;21.07;12.33;;;;;;;18.21;77.01;101658.00;5033858;28;20206;-72
2023/10/09 10:56:35;;;;;;;31.27;13.73;;;;;;;18.30;77.18;101659.63;5034075;28;20535;-72
2023/10/09 11:01:52;;;;;;;30.67;12.30;;;;;;;18.29;76.57;101668.78;5033990;28;20615;-71
2023/10/09 11:07:06;;;;;;;18.27;12.63;;;;;;;18.52;77.57;101676.91;5033595;28;20245;-72
2023/10/09 11:10:27;;;;;;;27.63;12.47;;;;;;;18.54;76.12;101683.03;5033613;28;20266;-72
2023/10/09 11:13:11;;;;;;;21.90;14.20;;;;;;;18.44;75.61;101672.41;5032123;28;20223;-71
2023/10/09 11:16:14;;;;;;;21.97;12.50;;;;;;;18.42;75.65;101674.44;5033165;28;20195;-71
2023/10/09 11:18:43;;;;;;;14.50;13.10;;;;;;;18.39;76.22;101673.97;5033181;28;20191;-71
2023/10/09 11:23:38;;;;;;;18.60;12.37;;;;;;;18.34;76.57;101674.50;5033919;28;20611;-72
2023/10/09 11:26:25;;;;;;;26.17;13.23;;;;;;;18.40;77.08;101675.66;5033116;28;20198;-72
2023/10/09 11:29:16;;;;;;;21.93;13.33;;;;;;;18.50;76.53;101674.38;5033335;28;20180;-72
2023/10/09 11:31:57;;;;;;;16.63;13.27;;;;;;;18.43;76.24;101681.56;5033710;28;20211;-72
2023/10/09 11:34:31;;;;;;;20.67;13.93;;;;;;;18.41;75.07;101675.50;5033070;28;20563;-72
2023/10/09 11:37:17;;;;;;;22.53;13.60;;;;;;;18.42;76.07;101674.44;5033591;28;20176;-71
2023/10/09 11:39:53;;;;;;;19.60;14.27;;;;;;;18.44;76.09;101677.81;5033087;28;20230;-72
2023/10/09 11:45:22;;;;;;;20.60;14.03;;;;;;;18.58;75.21;101673.53;5033210;28;20180;-72
2023/10/09 11:48:05;;;;;;;21.53;12.97;;;;;;;18.58;75.56;101665.41;5033402;28;20648;-72
2023/10/09 11:50:50;;;;;;;19.90;13.30;;;;;;;18.61;76.73;101668.59;5032970;28;20646;-72
2023/10/09 11:55:53;;;;;;;22.00;13.07;;;;;;;18.76;75.27;101655.09;5032917;28;20632;-71
2023/10/09 11:58:24;;;;;;;24.37;13.77;;;;;;;18.73;74.71;101650.03;5033146;28;20188;-72
2023/10/09 12:00:58;;;;;;;17.67;13.90;;;;;;;18.71;74.50;101652.09;5032798;28;20218;-72
2023/10/09 12:03:29;;;;;;;17.03;14.60;;;;;;;18.70;76.13;101653.97;5033047;28;20635;-72
2023/10/09 12:06:11;;;;;;;19.97;13.73;;;;;;;18.82;75.49;101651.66;5033389;28;20208;-72
2023/10/09 12:08:40;;;;;;;19.57;13.77;;;;;;;18.77;75.13;101647.81;5032970;28;20295;-72
2023/10/09 12:11:11;;;;;;;25.13;13.50;;;;;;;18.83;74.39;101657.94;5032963;28;20257;-71
2023/10/09 12:13:38;;;;;;;16.73;14.37;;;;;;;18.75;74.38;101658.00;5033140;28;20183;-72
2023/10/09 12:16:09;;;;;;;16.73;13.17;;;;;;;18.85;75.08;101650.44;5033083;28;20555;-72
2023/10/09 12:18:39;;;;;;;21.57;14.10;;;;;;;18.82;74.87;101643.53;5033245;28;20263;-71
2023/10/09 12:21:06;;;;;;;24.20;13.77;;;;;;;18.86;75.69;101647.56;5032583;28;20227;-71
2023/10/09 12:23:36;;;;;;;28.70;14.13;;;;;;;18.81;75.31;101649.97;5032547;28;20199;-71
2023/10/09 12:26:04;;;;;;;15.77;13.77;;;;;;;18.95;74.99;101645.63;5033163;28;20631;-71
2023/10/09 12:28:32;;;;;;;20.30;14.27;;;;;;;18.92;75.41;101648.69;5032665;28;20238;-71
2023/10/09 12:31:02;;;;;;;23.30;14.67;;;;;;;18.95;75.24;101657.31;5032759;28;20188;-71
2023/10/09 12:33:29;;;;;;;21.87;13.27;;;;;;;18.98;75.80;101667.75;5034374;28;20234;-71
2023/10/09 12:36:00;;;;;;;24.87;14.60;;;;;;;19.00;73.96;101659.47;5036231;28;20582;-72
2023/10/09 12:38:31;;;;;;;18.27;14.37;;;;;;;18.97;75.04;101655.22;5036059;28;20563;-72
2023/10/09 12:41:17;;;;;;;21.17;14.00;;;;;;;19.00;74.56;101659.47;5036163;28;20180;-72
2023/10/09 12:43:44;;;;;;;18.93;14.93;;;;;;;19.06;73.91;101656.84;5036593;28;20168;-72
2023/10/09 12:46:15;;;;;;;20.67;13.80;;;;;;;19.03;75.05;101653.66;5036190;28;20188;-72
2023/10/09 12:48:46;;;;;;;23.97;13.47;;;;;;;19.12;75.06;101664.25;5036052;28;20200;-72
2023/10/09 12:51:16;;;;;;;30.10;14.90;;;;;;;19.11;74.68;101664.41;5035987;28;20215;-71
2023/10/09 12:53:43;;;;;;;29.90;15.23;;;;;;;19.05;74.73;101663.28;5035834;28;20179;-71
2023/10/09 12:56:11;;;;;;;22.83;15.33;;;;;;;19.13;75.43;101665.09;5036062;28;20246;-71
2023/10/09 12:58:39;;;;;;;24.63;15.30;;;;;;;19.17;74.99;101656.41;5035664;28;20183;-71
2023/10/09 13:01:12;;;;;;;28.40;14.60;;;;;;;19.17;74.44;101658.28;5035576;28;20226;-72
2023/10/09 13:03:38;;;;;;;21.30;16.10;;;;;;;19.25;73.58;101662.75;5035897;28;20195;-72
2023/10/09 13:06:10;;;;;;;22.73;15.47;;;;;;;19.23;75.08;101659.38;5036025;28;20188;-72
2023/10/09 13:08:40;;;;;;;23.20;16.53;;;;;;;19.18;74.54;101654.50;5036020;28;20196;-71
2023/10/09 13:11:11;;;;;;;20.90;16.03;;;;;;;19.17;74.32;101658.28;5036331;28;20568;-71
2023/10/09 13:13:40;;;;;;;22.13;15.27;;;;;;;19.18;74.97;101658.06;5035447;28;20207;-72
2023/10/09 13:16:11;;;;;;;24.50;16.43;;;;;;;19.20;74.24;101640.78;5035670;28;20180;-72
2023/10/09 13:18:49;;;;;;;18.30;14.73;;;;;;;19.14;75.02;101647.78;5035433;28;20180;-72
2023/10/09 13:21:21;;;;;;;20.40;15.43;;;;;;;19.22;74.33;101641.47;5035235;28;20215;-72
2023/10/09 13:23:50;;;;;;;22.93;15.20;;;;;;;19.28;74.61;101643.41;5035490;28;20172;-72
2023/10/09 13:26:18;;;;;;;18.00;15.07;;;;;;;19.34;74.42;101651.66;5035207;28;20257;-71
2023/10/09 13:28:59;;;;;;;30.63;16.93;;;;;;;19.38;74.34;101649.41;5035015;28;20250;-71
2023/10/09 13:31:26;;;;;;;23.90;16.03;;;;;;;19.43;73.75;101652.44;5035029;28;20279;-72
2023/10/09 13:33:58;;;;;;;35.03;14.60;;;;;;;19.48;75.28;101648.13;5035292;28;20188;-72
2023/10/09 13:36:35;;;;;;;18.30;14.43;;;;;;;19.57;73.62;101647.00;5035001;28;20217;-72
2023/10/09 13:39:19;;;;;;;19.87;15.03;;;;;;;19.53;73.13;101642.97;5035249;28;20172;-72
2023/10/09 13:41:47;;;;;;;23.33;14.67;;;;;;;19.52;73.76;101644.00;5034797;28;20223;-71
2023/10/09 13:44:15;;;;;;;32.30;16.30;;;;;;;19.46;73.47;101646.63;5034770;28;20192;-71
2023/10/09 13:46:42;;;;;;;23.83;17.43;;;;;;;19.39;72.53;101649.19;5034711;28;20660;-72
2023/10/09 13:49:12;;;;;;;36.60;17.80;;;;;;;19.45;73.21;101639.53;5034749;28;20198;-72
2023/10/09 13:51:43;;;;;;;26.03;15.43;;;;;;;19.43;73.47;101639.72;5035345;28;20629;-72
2023/10/09 13:54:21;;;;;;;26.90;16.10;;;;;;;19.45;74.58;101631.38;5034939;28;20692;-72
2023/10/09 13:56:52;;;;;;;26.83;14.60;;;;;;;19.58;73.53;101640.53;5035089;28;20183;-72
2023/10/09 13:59:22;;;;;;;26.63;14.83;;;;;;;19.65;74.21;101635.19;5035064;28;20207;-72
2023/10/09 14:01:49;;;;;;;28.33;15.93;;;;;;;19.55;72.68;101632.78;5034405;28;20215;-72
2023/10/09 14:04:19;;;;;;;16.97;15.13;;;;;;;19.53;73.23;101634.84;5034983;28;20192;-72
2023/10/09 14:06:46;;;;;;;24.43;16.80;;;;;;;19.48;73.49;101633.72;5034884;28;20188;-72
2023/10/09 14:09:28;;;;;;;24.93;15.33;;;;;;;19.58;74.21;101650.56;5034369;28;20237;-72
2023/10/09 14:12:05;;;;;;;42.87;15.40;;;;;;;19.55;73.84;101640.94;5034458;28;20302;-72
2023/10/09 14:14:53;;;;;;;24.30;15.90;;;;;;;19.52;73.23;101641.28;5034464;28;20198;-72
2023/10/09 14:17:25;;;;;;;22.27;15.70;;;;;;;19.59;73.62;101644.94;5034763;28;20176;-72
2023/10/09 14:19:53;;;;;;;24.17;14.87;;;;;;;19.60;73.72;101629.53;5034775;28;20230;-72
2023/10/09 14:22:24;;;;;;;24.70;16.73;;;;;;;19.49;74.38;101632.69;5034001;28;20203;-71
2023/10/09 14:24:57;;;;;;;15.53;13.97;;;;;;;19.55;74.44;101637.38;5034601;28;20251;-71
2023/10/09 14:27:26;;;;;;;19.43;14.13;;;;;;;19.58;74.17;101632.41;5034545;28;20210;-71
2023/10/09 14:30:00;;;;;;;26.37;15.40;;;;;;;19.59;74.61;101630.53;5033976;28;20732;-71
2023/10/09 14:32:34;;;;;;;34.53;14.63;;;;;;;19.54;74.29;101633.81;5033863;28;20244;-71
2023/10/09 14:35:01;;;;;;;17.17;15.13;;;;;;;19.57;73.76;101635.31;5034660;28;20608;-71
2023/10/09 14:37:29;;;;;;;30.20;16.67;;;;;;;19.60;73.66;101637.66;5034398;28;20218;-72
2023/10/09 14:39:56;;;;;;;23.20;15.13;;;;;;;19.48;75.04;101631.84;5034044;28;20216;-72
2023/10/09 14:42:27;;;;;;;22.37;15.20;;;;;;;19.51;73.73;101630.66;5033990;28;20208;-71
2023/10/09 14:44:55;;;;;;;19.63;14.00;;;;;;;19.45;73.72;101629.50;5033764;28;20655;-72
2023/10/09 14:47:22;;;;;;;31.67;14.77;;;;;;;19.48;75.33;101622.88;5033836;28;20218;-72
2023/10/09 14:49:48;;;;;;;30.83;14.53;;;;;;;19.50;74.17;101626.25;5033649;28;20188;-72
2023/10/09 14:52:20;;;;;;;21.63;15.00;;;;;;;19.49;75.07;101625.41;5033539;28;20211;-71
2023/10/09 14:54:47;;;;;;;25.33;14.87;;;;;;;19.48;75.32;101622.88;5033625;28;20172;-71
2023/10/09 14:57:14;;;;;;;26.93;16.40;;;;;;;19.51;74.59;101627.94;5033274;28;20188;-71
2023/10/09 14:59:43;;;;;;;21.50;17.53;;;;;;;19.53;74.51;101631.28;5034030;28;20574;-71
2023/10/09 15:02:12;;;;;;;23.80;15.60;;;;;;;19.44;74.57;101632.41;5033581;28;20641;-71
2023/10/09 15:04:39;;;;;;;25.00;15.60;;;;;;;19.43;74.85;101628.03;5033400;28;20192;-71
2023/10/09 15:07:08;;;;;;;26.77;16.50;;;;;;;19.45;75.20;101625.97;5033272;28;20180;-71